createdAt,value
2019-02-19T00:01:16.755Z,59.16
2019-02-19T00:03:44.204Z,59.00
2019-02-19T00:06:11.620Z,59.04
2019-02-19T00:08:39.055Z,59.14
2019-02-19T00:11:06.435Z,59.51
2019-02-19T00:13:33.873Z,59.65
2019-02-19T00:16:01.250Z,59.43
2019-02-19T00:18:28.730Z,59.63
2019-02-19T00:20:56.170Z,59.77
2019-02-19T00:23:23.605Z,59.79
2019-02-19T00:25:50.980Z,59.88
2019-02-19T00:28:18.410Z,60.03
2019-02-19T00:30:45.810Z,59.79
2019-02-19T00:33:13.285Z,60.33
2019-02-19T00:35:40.705Z,59.99
2019-02-19T00:38:08.150Z,60.51
2019-02-19T00:40:35.531Z,60.22
2019-02-19T00:43:02.973Z,60.52
2019-02-19T00:45:30.355Z,60.36
2019-02-19T00:47:57.770Z,60.81
2019-02-19T00:50:25.160Z,60.75
2019-02-19T00:52:52.604Z,60.95
2019-02-19T00:55:19.960Z,61.23
2019-02-19T00:57:47.380Z,61.34
2019-02-19T01:00:14.778Z,61.44
2019-02-19T01:02:42.190Z,61.35
2019-02-19T01:05:09.591Z,61.56
2019-02-19T01:07:37.060Z,61.59
2019-02-19T01:10:04.948Z,61.97
2019-02-19T01:12:32.375Z,61.73
2019-02-19T01:14:59.745Z,62.12
2019-02-19T01:17:27.315Z,62.40
2019-02-19T01:19:54.715Z,62.41
2019-02-19T01:22:23.195Z,62.50
2019-02-19T01:24:50.625Z,62.58
2019-02-19T01:27:18.005Z,62.34
2019-02-19T01:29:45.414Z,62.38
2019-02-19T01:32:12.790Z,62.55
2019-02-19T01:34:40.225Z,62.79
2019-02-19T01:37:07.626Z,63.07
2019-02-19T01:39:35.056Z,62.67
2019-02-19T01:42:02.483Z,62.97
2019-02-19T01:44:29.933Z,63.11
2019-02-19T01:46:58.205Z,63.22
2019-02-19T01:49:25.660Z,63.32
2019-02-19T01:51:54.100Z,63.54
2019-02-19T01:54:21.568Z,63.49
2019-02-19T01:56:48.970Z,63.67
2019-02-19T01:59:16.427Z,63.55
2019-02-19T02:01:43.823Z,63.77
2019-02-19T02:04:11.210Z,63.95
2019-02-19T02:06:38.596Z,64.17
2019-02-19T02:09:06.011Z,64.29
2019-02-19T02:11:33.410Z,64.43
2019-02-19T02:14:00.845Z,64.49
2019-02-19T02:16:28.235Z,64.37
2019-02-19T02:18:55.691Z,64.37
2019-02-19T02:21:23.115Z,64.65
2019-02-19T02:23:50.565Z,64.65
2019-02-19T02:26:17.965Z,64.75
2019-02-19T02:28:45.400Z,64.91
2019-02-19T02:31:12.782Z,64.94
2019-02-19T02:33:40.230Z,65.07
2019-02-19T02:36:07.663Z,65.30
2019-02-19T02:38:35.140Z,65.32
2019-02-19T02:41:02.526Z,65.40
2019-02-19T02:43:29.986Z,65.59
2019-02-19T02:45:57.378Z,65.61
2019-02-19T02:48:24.848Z,65.59
2019-02-19T02:50:52.200Z,65.93
2019-02-19T02:53:19.655Z,66.10
2019-02-19T02:55:47.020Z,66.23
2019-02-19T02:58:14.910Z,66.47
2019-02-19T03:00:42.388Z,66.67
2019-02-19T03:03:09.831Z,66.86
2019-02-19T03:05:40.818Z,66.91
2019-02-19T03:08:08.461Z,67.22
2019-02-19T03:10:35.894Z,67.27
2019-02-19T03:13:03.276Z,67.62
2019-02-19T03:15:30.713Z,67.71
2019-02-19T03:17:58.088Z,68.06
2019-02-19T03:20:25.545Z,68.20
2019-02-19T03:22:52.995Z,68.04
2019-02-19T03:25:20.437Z,67.90
2019-02-19T03:27:47.832Z,68.26
2019-02-19T03:30:15.299Z,68.08
2019-02-19T03:32:42.662Z,67.86
2019-02-19T03:35:10.071Z,68.02
2019-02-19T03:37:37.467Z,68.03
2019-02-19T03:40:07.460Z,68.12
2019-02-19T03:42:34.666Z,68.29
2019-02-19T03:45:02.126Z,68.75
2019-02-19T03:47:29.552Z,68.99
2019-02-19T03:49:57.062Z,68.93
2019-02-19T03:52:24.445Z,69.02
2019-02-19T03:54:51.890Z,69.33
2019-02-19T03:57:19.386Z,69.48
2019-02-19T03:59:46.835Z,69.79
2019-02-19T04:02:14.235Z,69.96
2019-02-19T04:04:41.670Z,70.49
2019-02-19T04:10:39.686Z,70.72
2019-02-19T04:13:07.045Z,71.07
2019-02-19T04:15:34.612Z,71.26
2019-02-19T04:18:01.975Z,71.23
2019-02-19T04:20:29.856Z,71.56
2019-02-19T04:22:57.235Z,71.94
2019-02-19T04:25:24.655Z,72.13
2019-02-19T04:27:52.025Z,72.34
2019-02-19T04:30:19.500Z,72.66
2019-02-19T04:32:46.897Z,72.79
2019-02-19T04:35:14.347Z,73.34
2019-02-19T04:37:41.760Z,73.56
2019-02-19T04:40:09.205Z,73.84
2019-02-19T04:42:36.584Z,74.04
2019-02-19T04:45:04.468Z,74.28
2019-02-19T04:47:31.835Z,74.54
2019-02-19T04:49:59.272Z,74.70
2019-02-19T04:52:26.700Z,75.28
2019-02-19T04:54:54.348Z,75.61
2019-02-19T04:57:21.766Z,76.30
2019-02-19T04:59:49.223Z,76.77
2019-02-19T05:02:16.577Z,77.59
2019-02-19T05:04:44.001Z,78.00
2019-02-19T05:07:11.359Z,78.60
2019-02-19T05:09:38.791Z,78.99
2019-02-19T05:12:06.167Z,79.56
2019-02-19T05:14:33.604Z,80.58
2019-02-19T05:17:00.975Z,80.62
2019-02-19T05:19:28.381Z,81.12
2019-02-19T05:21:55.855Z,81.74
2019-02-19T05:24:23.278Z,81.78
2019-02-19T05:26:50.704Z,81.74
2019-02-19T05:29:18.101Z,82.04
2019-02-19T05:31:45.536Z,82.06
2019-02-19T05:34:12.916Z,82.29
2019-02-19T05:36:40.408Z,82.46
2019-02-19T05:39:07.805Z,82.55
2019-02-19T05:41:35.245Z,82.34
2019-02-19T05:44:03.705Z,82.43
2019-02-19T05:46:31.131Z,82.92
2019-02-19T05:48:58.513Z,82.65
2019-02-19T05:51:28.157Z,82.59
2019-02-19T05:53:55.543Z,82.86
2019-02-19T05:56:24.813Z,83.06
2019-02-19T05:58:52.192Z,83.20
2019-02-19T06:01:19.618Z,83.38
2019-02-19T06:03:47.000Z,83.26
2019-02-19T06:06:14.502Z,83.44
2019-02-19T06:08:41.873Z,83.57
2019-02-19T06:11:09.315Z,83.46
2019-02-19T06:13:36.749Z,83.51
2019-02-19T06:16:24.517Z,83.53
2019-02-19T06:18:51.883Z,83.60
2019-02-19T06:21:20.673Z,83.78
2019-02-19T06:23:48.219Z,83.60
2019-02-19T06:26:36.750Z,83.50
2019-02-19T06:29:04.164Z,83.46
2019-02-19T06:31:31.613Z,83.52
2019-02-19T06:33:58.999Z,83.23
2019-02-19T06:36:26.434Z,83.40
2019-02-19T06:38:53.798Z,83.10
2019-02-19T06:41:21.268Z,83.28
2019-02-19T06:43:48.643Z,83.25
2019-02-19T06:46:16.373Z,82.95
2019-02-19T06:48:43.753Z,83.05
2019-02-19T06:51:11.163Z,82.88
2019-02-19T06:53:42.913Z,82.80
2019-02-19T06:56:10.358Z,82.95
2019-02-19T06:58:37.719Z,82.93
2019-02-19T07:01:05.138Z,83.04
2019-02-19T07:03:38.633Z,82.93
2019-02-19T07:06:06.089Z,82.93
2019-02-19T07:08:33.473Z,83.19
2019-02-19T07:11:00.938Z,83.10
2019-02-19T07:13:28.381Z,82.92
2019-02-19T07:15:55.798Z,82.81
2019-02-19T07:18:23.194Z,82.88
2019-02-19T07:20:50.668Z,82.72
2019-02-19T07:23:18.115Z,82.62
2019-02-19T07:25:45.523Z,82.63
2019-02-19T07:28:12.993Z,82.72
2019-02-19T07:30:40.374Z,82.78
2019-02-19T07:33:07.834Z,82.69
2019-02-19T07:35:35.253Z,82.43
2019-02-19T07:38:02.669Z,82.43
2019-02-19T07:40:30.065Z,82.24
2019-02-19T07:42:57.491Z,82.23
2019-02-19T07:45:24.908Z,82.06
2019-02-19T07:47:52.378Z,81.44
2019-02-19T07:50:19.759Z,81.47
2019-02-19T07:52:47.193Z,81.71
2019-02-19T07:55:14.578Z,81.55
2019-02-19T07:57:42.932Z,81.47
2019-02-19T08:00:10.648Z,81.29
2019-02-19T08:02:38.117Z,80.83
2019-02-19T08:05:05.653Z,80.38
2019-02-19T08:07:33.103Z,80.17
2019-02-19T08:10:00.500Z,79.92
2019-02-19T08:12:27.933Z,80.00
2019-02-19T08:14:55.333Z,80.07
2019-02-19T08:17:22.783Z,80.10
2019-02-19T08:19:50.163Z,80.07
2019-02-19T08:22:17.644Z,79.83
2019-02-19T08:24:45.040Z,79.89
2019-02-19T08:27:12.488Z,79.34
2019-02-19T08:29:39.904Z,79.06
2019-02-19T08:32:07.318Z,78.98
2019-02-19T08:34:34.721Z,78.75
2019-02-19T08:37:02.139Z,78.53
2019-02-19T08:39:32.048Z,78.75
2019-02-19T08:41:59.483Z,78.42
2019-02-19T08:44:26.913Z,78.61
2019-02-19T08:46:54.385Z,78.28
2019-02-19T08:49:21.773Z,78.43
2019-02-19T08:51:55.824Z,78.49
2019-02-19T08:54:18.498Z,78.95
2019-02-19T08:56:45.969Z,78.83
2019-02-19T08:59:13.369Z,79.15
2019-02-19T09:01:40.752Z,79.19
2019-02-19T09:04:08.199Z,78.72
2019-02-19T09:06:35.587Z,78.36
2019-02-19T09:09:04.638Z,77.68
2019-02-19T09:11:34.814Z,76.95
2019-02-19T09:14:02.260Z,77.16
2019-02-19T09:16:29.638Z,77.01
2019-02-19T09:18:57.094Z,76.64
2019-02-19T09:21:24.518Z,76.13
2019-02-19T09:23:51.993Z,75.66
2019-02-19T09:26:19.404Z,74.93
2019-02-19T09:28:48.681Z,74.79
2019-02-19T09:31:16.130Z,74.76
2019-02-19T09:33:43.553Z,74.77
2019-02-19T09:36:10.919Z,74.19
2019-02-19T09:38:38.343Z,73.40
2019-02-19T09:41:05.704Z,72.75
2019-02-19T09:43:35.517Z,72.22
2019-02-19T09:46:02.425Z,71.91
2019-02-19T09:48:30.371Z,71.36
2019-02-19T09:50:57.754Z,70.66
2019-02-19T09:53:25.194Z,71.36
2019-02-19T09:55:52.619Z,70.02
2019-02-19T09:58:20.054Z,69.80
2019-02-19T10:00:47.479Z,70.43
2019-02-19T10:03:15.120Z,70.76
2019-02-19T10:05:42.499Z,70.78
2019-02-19T10:08:09.939Z,70.69
2019-02-19T10:10:37.729Z,70.03
2019-02-19T10:13:05.193Z,70.43
2019-02-19T10:15:32.564Z,70.49
2019-02-19T10:17:59.978Z,70.48
2019-02-19T10:20:27.404Z,69.26
2019-02-19T10:22:54.858Z,68.77
2019-02-19T10:25:22.648Z,67.99
2019-02-19T10:27:50.053Z,68.07
2019-02-19T10:30:18.480Z,67.53
2019-02-19T10:32:46.449Z,67.69
2019-02-19T10:35:13.860Z,68.07
2019-02-19T10:37:41.403Z,69.01
2019-02-19T10:40:11.069Z,69.15
2019-02-19T10:42:41.238Z,69.34
2019-02-19T10:45:11.004Z,69.62
2019-02-19T10:47:41.318Z,69.64
2019-02-19T10:50:09.095Z,69.10
2019-02-19T10:52:36.478Z,68.85
2019-02-19T10:55:04.248Z,67.43
2019-02-19T10:57:31.658Z,67.72
2019-02-19T10:59:59.127Z,67.65
2019-02-19T11:02:26.518Z,68.46
2019-02-19T11:04:53.988Z,68.31
2019-02-19T11:07:21.373Z,68.29
2019-02-19T11:09:48.842Z,68.63
2019-02-19T11:12:16.267Z,68.69
2019-02-19T11:14:43.751Z,69.35
2019-02-19T11:17:11.123Z,69.08
2019-02-19T11:19:38.545Z,68.77
2019-02-19T11:22:11.095Z,69.07
2019-02-19T11:28:08.553Z,68.62
2019-02-19T11:31:08.349Z,68.27
2019-02-19T11:38:02.567Z,67.94
2019-02-19T11:40:30.103Z,67.82
2019-02-19T11:42:57.500Z,67.87
2019-02-19T11:45:25.018Z,67.85
2019-02-19T11:47:56.398Z,67.65
2019-02-19T11:50:23.915Z,67.05
2019-02-19T11:56:23.479Z,65.47
2019-02-19T11:59:24.004Z,65.35
2019-02-19T12:02:11.969Z,64.60
2019-02-19T12:04:41.884Z,63.26
2019-02-19T12:08:12.343Z,62.47
2019-02-19T12:10:27.496Z,62.58
2019-02-19T12:12:54.903Z,62.17
2019-02-19T12:15:22.459Z,62.27
2019-02-19T12:17:49.844Z,62.97
2019-02-19T12:20:17.622Z,63.72
2019-02-19T12:22:45.142Z,63.59
2019-02-19T12:25:18.892Z,64.28
2019-02-19T12:31:32.198Z,63.60
2019-02-19T12:33:59.768Z,63.81
2019-02-19T12:36:27.158Z,62.91
2019-02-19T12:38:54.662Z,62.48
2019-02-19T12:41:22.159Z,61.54
2019-02-19T12:44:53.453Z,60.82
2019-02-19T12:47:20.973Z,61.03
2019-02-19T12:49:48.390Z,61.35
2019-02-19T12:52:15.903Z,61.81
2019-02-19T12:54:43.368Z,62.08
2019-02-19T12:57:10.768Z,62.47
2019-02-19T12:59:40.554Z,62.83
2019-02-19T13:02:10.833Z,63.12
2019-02-19T13:04:43.425Z,62.12
2019-02-19T13:07:10.741Z,62.26
2019-02-19T13:09:42.958Z,62.51
2019-02-19T13:12:14.294Z,62.51
2019-02-19T13:14:41.742Z,62.38
2019-02-19T13:17:09.238Z,62.82
2019-02-19T13:19:36.834Z,62.81
2019-02-19T13:22:04.912Z,62.53
2019-02-19T13:25:01.652Z,62.55
2019-02-19T13:27:41.233Z,63.08
2019-02-19T13:30:12.152Z,63.13
2019-02-19T13:32:43.134Z,62.75
2019-02-19T13:35:11.320Z,62.55
2019-02-19T13:37:38.772Z,62.14
2019-02-19T13:40:07.332Z,61.79
2019-02-19T13:42:34.833Z,61.99
2019-02-19T13:45:02.552Z,62.17
2019-02-19T13:47:35.934Z,62.31
2019-02-19T13:50:03.713Z,62.55
2019-02-19T13:52:42.815Z,62.30
2019-02-19T13:58:24.588Z,62.76
2019-02-19T14:00:52.572Z,62.84
2019-02-19T14:04:05.087Z,63.26
2019-02-19T14:06:32.618Z,63.55
2019-02-19T14:09:04.474Z,63.50
2019-02-19T14:11:34.418Z,63.61
2019-02-19T14:14:28.315Z,64.03
2019-02-19T14:16:59.876Z,63.62
2019-02-19T14:20:30.448Z,63.62
2019-02-19T14:33:22.049Z,63.30
2019-02-19T15:00:27.591Z,64.26
2019-02-19T15:03:33.356Z,64.30
2019-02-19T15:06:26.586Z,64.69
2019-02-19T15:24:44.688Z,65.62
2019-02-19T15:44:59.240Z,66.16
2019-02-19T15:48:27.887Z,66.36
2019-02-19T15:51:47.158Z,66.29
2019-02-19T15:54:39.562Z,66.42
2019-02-19T15:58:04.799Z,66.02
2019-02-19T16:01:04.857Z,65.76
2019-02-19T16:03:41.241Z,65.95
2019-02-19T16:06:49.562Z,66.16
2019-02-19T16:09:31.463Z,65.99
2019-02-19T16:12:19.752Z,66.18
2019-02-19T16:14:57.207Z,65.64
2019-02-19T16:17:44.373Z,65.64
2019-02-19T16:20:37.067Z,65.83
2019-02-19T16:23:26.341Z,65.94
2019-02-19T16:26:09.973Z,66.08
2019-02-19T16:29:14.418Z,66.09
2019-02-19T16:32:03.357Z,66.16
2019-02-19T16:34:53.297Z,65.96
2019-02-19T16:37:59.158Z,65.96
2019-02-19T16:41:01.524Z,66.15
2019-02-19T16:43:47.641Z,65.89
2019-02-19T16:46:43.797Z,65.77
2019-02-19T16:49:49.765Z,65.90
2019-02-19T16:52:39.718Z,65.85
2019-02-19T16:55:28.262Z,65.62
2019-02-19T16:58:15.631Z,66.16
2019-02-19T17:01:03.590Z,65.98
2019-02-19T17:04:08.070Z,65.93
2019-02-19T17:06:52.624Z,65.86
2019-02-19T17:09:28.411Z,66.15
2019-02-19T17:12:15.324Z,65.95
2019-02-19T17:15:08.551Z,65.97
2019-02-19T17:17:44.551Z,66.22
2019-02-19T17:20:34.270Z,65.70
2019-02-19T17:23:11.479Z,65.88
2019-02-19T17:25:47.574Z,66.20
2019-02-19T17:28:33.561Z,66.23
2019-02-19T17:31:29.723Z,66.07
2019-02-19T17:34:12.254Z,66.11
2019-02-19T17:36:58.007Z,66.07
2019-02-19T17:39:51.166Z,66.16
2019-02-19T17:42:56.936Z,66.28
2019-02-19T17:45:57.637Z,66.34
2019-02-19T17:48:47.476Z,66.30
2019-02-19T17:51:41.063Z,66.30
2019-02-19T17:54:27.311Z,66.33
2019-02-19T17:57:07.192Z,66.40
2019-02-19T17:59:53.165Z,66.63
2019-02-19T18:02:39.029Z,66.84
2019-02-19T18:05:29.510Z,66.81
2019-02-19T18:08:15.805Z,66.84
2019-02-19T18:10:57.355Z,67.01
2019-02-19T18:14:00.180Z,67.51
2019-02-19T18:16:40.392Z,67.43
2019-02-19T18:19:08.291Z,67.59
2019-02-19T18:21:36.349Z,67.70
2019-02-19T18:24:04.290Z,67.47
2019-02-19T18:26:32.040Z,67.45
2019-02-19T18:28:59.849Z,67.24
2019-02-19T18:31:27.750Z,67.45
2019-02-19T18:33:55.565Z,67.34
2019-02-19T18:36:23.351Z,67.39
2019-02-19T18:38:51.280Z,67.32
2019-02-19T18:41:19.283Z,67.09
2019-02-19T18:43:47.222Z,66.89
2019-02-19T18:46:15.221Z,66.91
2019-02-19T18:48:43.040Z,67.02
2019-02-19T18:51:11.335Z,67.22
2019-02-19T18:53:39.360Z,67.60
2019-02-19T18:56:07.410Z,67.85
2019-02-19T18:58:35.285Z,68.26
2019-02-19T19:01:03.308Z,68.45
2019-02-19T19:03:31.233Z,68.62
2019-02-19T19:05:59.255Z,68.83
2019-02-19T19:08:27.190Z,68.91
2019-02-19T19:10:55.810Z,68.70
2019-02-19T19:13:23.551Z,68.88
2019-02-19T19:15:51.405Z,68.83
2019-02-19T19:18:19.514Z,69.05
2019-02-19T19:20:47.920Z,69.15
2019-02-19T19:23:17.359Z,68.93
2019-02-19T19:25:47.641Z,68.81
2019-02-19T19:28:15.676Z,68.69
2019-02-19T19:30:43.656Z,68.79
2019-02-19T19:33:13.456Z,68.66
2019-02-19T19:35:42.851Z,68.57
2019-02-19T19:38:12.286Z,68.68
2019-02-19T19:40:41.705Z,68.52
2019-02-19T19:43:10.751Z,68.65
2019-02-19T19:45:38.939Z,68.42
2019-02-19T19:48:06.870Z,68.49
2019-02-19T19:50:34.989Z,68.60
2019-02-19T19:53:02.980Z,68.72
2019-02-19T19:55:33.761Z,68.78
2019-02-19T19:58:01.704Z,68.93
2019-02-19T20:00:34.811Z,69.20
2019-02-19T20:03:08.970Z,69.48
2019-02-19T20:05:40.985Z,69.70
2019-02-19T20:08:08.968Z,69.54
2019-02-19T20:10:37.026Z,69.73
2019-02-19T20:13:07.091Z,69.86
2019-02-19T20:15:39.304Z,70.02
2019-02-19T20:18:07.225Z,70.09
2019-02-19T20:20:39.810Z,70.14
2019-02-19T20:23:08.195Z,70.20
2019-02-19T20:25:38.996Z,70.23
2019-02-19T20:28:07.120Z,70.24
2019-02-19T20:30:35.226Z,70.06
2019-02-19T20:33:10.070Z,70.12
2019-02-19T20:35:38.665Z,70.24
2019-02-19T20:38:06.701Z,70.41
2019-02-19T20:40:34.676Z,70.73
2019-02-19T20:43:03.251Z,70.67
2019-02-19T20:45:31.220Z,70.73
2019-02-19T20:47:59.996Z,71.03
2019-02-19T20:50:27.906Z,71.14
2019-02-19T20:52:55.765Z,71.35
2019-02-19T20:55:23.785Z,71.48
2019-02-19T20:57:51.770Z,71.62
2019-02-19T21:00:19.771Z,71.85
2019-02-19T21:02:47.536Z,72.04
2019-02-19T21:05:15.410Z,71.99
2019-02-19T21:07:43.586Z,72.15
2019-02-19T21:10:13.595Z,72.33
2019-02-19T21:12:41.575Z,72.39
2019-02-19T21:15:09.656Z,72.44
2019-02-19T21:17:37.755Z,72.53
2019-02-19T21:20:06.400Z,72.85
2019-02-19T21:22:34.489Z,72.75
2019-02-19T21:25:02.530Z,72.91
2019-02-19T21:27:30.295Z,73.02
2019-02-19T21:29:58.230Z,73.21
2019-02-19T21:32:26.145Z,73.31
2019-02-19T21:34:54.060Z,73.53
2019-02-19T21:37:21.975Z,73.62
2019-02-19T21:39:49.895Z,73.84
2019-02-19T21:42:17.710Z,74.24
2019-02-19T21:44:45.730Z,74.38
2019-02-19T21:47:13.535Z,74.47
2019-02-19T21:49:41.605Z,74.68
2019-02-19T21:52:09.494Z,74.59
2019-02-19T21:54:37.625Z,74.90
2019-02-19T21:57:05.270Z,75.02
2019-02-19T21:59:32.928Z,74.98
2019-02-19T22:02:00.438Z,74.98
2019-02-19T22:04:27.966Z,75.02
2019-02-19T22:06:55.396Z,75.05
2019-02-19T22:09:22.851Z,75.16
2019-02-19T22:11:50.331Z,75.31
2019-02-19T22:14:17.801Z,75.42
2019-02-19T22:16:45.266Z,75.46
2019-02-19T22:19:12.731Z,75.59
2019-02-19T22:21:47.801Z,75.70
2019-02-19T22:24:17.296Z,75.70
2019-02-19T22:26:44.666Z,75.77
2019-02-19T22:29:12.107Z,75.98
2019-02-19T22:31:39.538Z,75.96
2019-02-19T22:34:07.310Z,76.12
2019-02-19T22:36:35.234Z,76.13
2019-02-19T22:39:03.836Z,76.37
2019-02-19T22:41:31.262Z,76.46
2019-02-19T22:43:58.831Z,76.43
2019-02-19T22:46:26.267Z,76.66
2019-02-19T22:48:53.916Z,76.73
2019-02-19T22:51:21.431Z,76.72
2019-02-19T22:54:08.859Z,76.97
2019-02-19T22:56:39.190Z,76.87
2019-02-19T22:59:06.872Z,76.83
2019-02-19T23:01:40.386Z,76.85
2019-02-19T23:04:07.867Z,76.74
2019-02-19T23:06:35.404Z,76.77
2019-02-19T23:09:04.695Z,76.91
2019-02-19T23:11:32.248Z,77.07
2019-02-19T23:13:59.641Z,76.93
2019-02-19T23:16:27.141Z,76.97
2019-02-19T23:18:54.559Z,77.05
2019-02-19T23:21:22.101Z,77.13
2019-02-19T23:23:49.630Z,77.29
2019-02-19T23:26:17.210Z,77.28
2019-02-19T23:28:44.584Z,77.44
2019-02-19T23:31:12.096Z,77.36
2019-02-19T23:33:39.521Z,77.38
2019-02-19T23:36:14.606Z,77.41
2019-02-19T23:38:42.116Z,77.75
2019-02-19T23:41:09.586Z,77.75
2019-02-19T23:43:36.992Z,77.82
2019-02-19T23:46:04.581Z,77.82
2019-02-19T23:48:33.749Z,77.92
2019-02-19T23:51:01.356Z,77.93
2019-02-19T23:53:29.967Z,78.08
2019-02-19T23:55:57.426Z,78.03
2019-02-19T23:58:24.932Z,78.12
